Prairie Du Rocher, Illinois
Current Conditions -  °F | °C
As of 10:35 AM on Saturday 22 Nov 2014 (Local Time) from KSAR Reporting Station
Broken Clouds Broken Clouds  
Wind Chill: 55°   Ceiling: 4800
Heat Index: 55°   Visibility: 10mi
Dew Point: 46°   Wind: 15mph
Humidity: 72%   Direction: 190°S
Pressure: 30.14"   Gusts: 26mph
Location:  38.08°N, 90.1°W
Report Text: KSAR 221635Z AUTO 19013G23KT 10SM SCT043 BKN048 BKN095 13/08 A3014 RMK AO2 T01290080
Loading
Personal Weather Stations






























Interactive Weather Map New forecast layout! Learn more

10-Day Weather Forecast

Advertisements
Track Severe Weather on mobile